バンギ の空港の天気 - METARとTAF

バンギ・ムポコ国際空港 ( FEFF / BGF ) - 中央アフリカ バンギ
飛行場実況気象(Metar)
観測時間05/28 14:00 WAT (05/28 13:00 UTC)
風向・風速西 2m/s
視程10km以上
天気現象
全天の8割程度の雲 雲底高度 700m
少しの雲 雲底高度 1220m
気温32℃
湿度56%
気圧1008hPa
METARFEFF 281300Z 27004KT 9999 BKN023 FEW040CB 32/22 Q1008 TEMPO TS
過去の天気等 Google飛行場航空写真 Wunderground天気予報

過去48時間のMETAR

飛行場予報(TAF)
発表時間: 5/28 12:00 WAT (5/28 11:00 UTC)
予報対象時間: 28日13時 WAT ~ 29日19時 WAT
風向・風速南南西 2m/s
視程10km以上
全天の8割程度の雲 雲底高度 700m
少しの積乱雲 雲底高度 1220m
28日14時 WAT ~ 28日18時 WAT に 確率 30% で一時的に
風向・風速不定 8m/s
視程4000m
天気現象雷雨
28日20時 WAT ~ 28日22時 WAT に徐々に
視程10km以上
なし
29日5時 WAT ~ 29日7時 WAT に徐々に
全天の8割程度の雲 雲底高度 240m
29日9時 WAT ~ 29日11時 WAT に徐々に
全天の8割程度の雲 雲底高度 400m
TAF FEFF 281100Z 2812/2918 20004KT 9999 BKN023 FEW040CB
PROB30 TEMPO 2813/2817 VRB15KT 4000 TSRA
BECMG 2819/2821 CAVOK
BECMG 2904/2906 BKN008
BECMG 2908/2910 BKN013